Time;durP1;ratioP1;P1;durP2;ratioP2;P2;SDS_P1;SDS_P2;PMS_P1;PMS_P2;Temp;Humidity;BMP_temperature;BMP_pressure;BME280_temperature;BME280_humidity;BME280_pressure;Samples;Min_cycle;Max_cycle;Signal;HPM_P1;HPM_P2
2021/07/19 00:01:55;;;;;;;15.73;9.50;;;;;;;15.83;78.32;93093.75;2052051;69;20149;-77
2021/07/19 00:04:21;;;;;;;14.73;9.10;;;;;;;16.09;77.40;93105.63;2052354;69;20669;-77
2021/07/19 00:06:47;;;;;;;14.93;9.50;;;;;;;15.79;78.32;93104.91;2052510;69;20200;-78
2021/07/19 00:09:14;;;;;;;13.55;9.15;;;;;;;15.89;77.50;93102.56;2052076;70;20516;-77
2021/07/19 00:11:53;;;;;;;15.10;8.98;;;;;;;15.96;76.77;93103.59;2051913;70;20532;-77
2021/07/19 00:14:24;;;;;;;14.38;8.57;;;;;;;15.87;76.92;93104.56;2051948;69;20178;-78
2021/07/19 00:16:52;;;;;;;20.75;9.23;;;;;;;15.83;77.42;93105.13;2052214;69;20165;-78
2021/07/19 00:19:21;;;;;;;13.82;8.70;;;;;;;15.81;77.12;93107.13;2052415;69;20157;-77
2021/07/19 00:21:48;;;;;;;20.20;8.75;;;;;;;15.84;77.64;93095.22;2052107;69;20200;-78
2021/07/19 00:24:17;;;;;;;12.82;9.75;;;;;;;15.95;77.26;93096.44;2051569;69;20665;-77
2021/07/19 00:26:44;;;;;;;18.83;9.48;;;;;;;15.76;78.57;93100.53;2051799;70;20155;-77
2021/07/19 00:29:10;;;;;;;13.90;8.38;;;;;;;15.83;77.19;93104.38;2051796;70;20158;-77
2021/07/19 00:31:36;;;;;;;13.40;8.55;;;;;;;15.81;77.10;93102.19;2051686;69;20181;-76
2021/07/19 00:34:04;;;;;;;13.88;9.20;;;;;;;15.77;77.33;93104.09;2051668;69;20569;-76
2021/07/19 00:36:30;;;;;;;15.73;9.32;;;;;;;15.66;77.64;93091.50;2051088;69;20146;-76
2021/07/19 00:38:57;;;;;;;16.85;9.30;;;;;;;15.80;77.10;93117.00;2051724;70;20204;-76
2021/07/19 00:41:23;;;;;;;16.00;9.27;;;;;;;15.77;77.32;93107.66;2064568;69;20154;-77
2021/07/19 00:43:50;;;;;;;12.95;8.82;;;;;;;15.80;76.94;93105.66;2051796;70;20141;-76
2021/07/19 00:46:17;;;;;;;15.73;8.95;;;;;;;15.72;77.58;93114.53;2064711;69;20177;-77
2021/07/19 00:48:43;;;;;;;17.25;9.55;;;;;;;15.80;78.82;93112.06;2051755;69;20174;-75
2021/07/19 00:51:11;;;;;;;15.73;10.23;;;;;;;15.83;78.27;93107.22;2064448;69;20150;-76
2021/07/19 00:53:39;;;;;;;15.32;9.40;;;;;;;15.84;78.11;93109.41;2064249;69;20169;-76
2021/07/19 00:56:10;;;;;;;13.77;9.43;;;;;;;15.82;77.26;93103.66;2064770;69;20193;-76
2021/07/19 00:58:38;;;;;;;15.93;9.98;;;;;;;15.85;77.96;93110.16;2064940;69;20182;-76
2021/07/19 01:01:05;;;;;;;14.05;9.30;;;;;;;15.71;78.60;93113.78;2065003;69;20154;-77
2021/07/19 01:03:33;;;;;;;16.63;9.52;;;;;;;15.88;78.10;93120.22;2064871;69;20528;-76
2021/07/19 01:06:03;;;;;;;14.68;10.05;;;;;;;15.58;79.22;93122.28;2052206;70;20138;-76
2021/07/19 01:08:30;;;;;;;13.25;8.80;;;;;;;15.69;78.18;93130.72;2065164;69;20233;-76
2021/07/19 01:10:58;;;;;;;14.23;8.52;;;;;;;15.71;77.51;93127.22;2065200;69;20142;-78
2021/07/19 01:13:25;;;;;;;15.35;8.93;;;;;;;15.78;77.50;93114.06;2052281;70;20150;-78
2021/07/19 01:15:53;;;;;;;15.35;8.85;;;;;;;15.82;77.38;93112.16;2065314;69;20157;-77
2021/07/19 01:18:23;;;;;;;12.88;9.25;;;;;;;15.84;77.50;93114.34;2065054;69;20154;-79
2021/07/19 01:21:15;;;;;;;15.43;9.50;;;;;;;15.90;77.35;93115.41;2065049;69;20172;-78
2021/07/19 01:24:16;;;;;;;17.75;9.93;;;;;;;15.86;77.35;93115.19;2062420;69;20145;-78
2021/07/19 01:26:49;;;;;;;18.30;9.40;;;;;;;15.87;77.00;93121.63;2065147;69;20229;-78
2021/07/19 01:29:20;;;;;;;16.55;8.82;;;;;;;15.88;76.51;93118.13;2052283;70;20146;-78
2021/07/19 01:31:48;;;;;;;16.55;9.40;;;;;;;15.73;77.61;93111.03;2065058;69;20260;-78
2021/07/19 01:34:21;;;;;;;15.77;9.75;;;;;;;15.86;76.75;93118.03;2052133;69;20153;-78
2021/07/19 01:36:56;;;;;;;14.30;9.02;;;;;;;15.79;77.02;93119.09;2052342;70;20249;-78
2021/07/19 01:39:27;;;;;;;13.73;8.77;;;;;;;15.74;76.63;93115.34;2052335;70;20150;-78
2021/07/19 01:41:55;;;;;;;13.43;8.65;;;;;;;15.54;77.82;93114.34;2052145;69;20146;-78
2021/07/19 01:44:22;;;;;;;12.85;8.80;;;;;;;15.65;77.11;93109.91;2052215;69;20154;-78
2021/07/19 01:46:50;;;;;;;18.63;9.05;;;;;;;15.61;76.93;93106.84;2065082;69;20153;-77
2021/07/19 01:49:18;;;;;;;13.07;8.73;;;;;;;15.58;77.24;93105.28;2052215;69;20663;-78
2021/07/19 01:51:45;;;;;;;11.88;9.13;;;;;;;15.62;76.74;93106.19;2065113;69;20135;-78
2021/07/19 01:54:13;;;;;;;15.05;8.68;;;;;;;15.62;76.98;93103.38;2065035;69;20170;-78
2021/07/19 01:56:40;;;;;;;16.38;9.20;;;;;;;15.66;76.60;93100.03;2065129;69;20206;-78
2021/07/19 01:59:07;;;;;;;15.85;8.80;;;;;;;15.66;76.39;93108.53;2052189;69;20685;-78
2021/07/19 02:01:40;;;;;;;15.27;8.68;;;;;;;15.60;77.19;93114.63;2065009;69;20142;-77
2021/07/19 02:04:11;;;;;;;13.80;9.05;;;;;;;15.66;77.01;93114.22;2065090;69;20589;-78
2021/07/19 02:06:42;;;;;;;12.80;8.90;;;;;;;15.73;76.87;93118.81;2052320;70;20223;-78
2021/07/19 02:09:11;;;;;;;14.20;9.50;;;;;;;15.81;76.30;93118.50;2062386;69;20151;-78
2021/07/19 02:11:47;;;;;;;15.52;9.43;;;;;;;15.74;76.99;93118.19;2065157;69;20607;-78
2021/07/19 02:14:15;;;;;;;15.55;8.90;;;;;;;15.79;77.27;93118.38;2065123;69;20150;-79
2021/07/19 02:16:50;;;;;;;18.67;8.85;;;;;;;15.69;77.53;93122.19;2064943;69;20569;-78
2021/07/19 02:19:16;;;;;;;13.25;9.38;;;;;;;15.41;79.45;93115.84;2062265;69;20579;-78
2021/07/19 02:21:45;;;;;;;15.68;9.48;;;;;;;15.62;78.20;93105.47;2065020;69;20161;-78
2021/07/19 02:24:26;;;;;;;12.15;8.63;;;;;;;15.31;78.67;93108.94;2052115;70;20237;-78
2021/07/19 02:27:12;;;;;;;14.55;9.07;;;;;;;15.47;78.36;93104.78;2052101;69;20236;-78
2021/07/19 02:29:40;;;;;;;15.13;8.60;;;;;;;15.62;77.43;93114.72;2065071;69;20142;-78
2021/07/19 02:32:07;;;;;;;12.60;8.18;;;;;;;15.67;76.96;93110.75;2064942;69;20153;-78
2021/07/19 02:34:33;;;;;;;12.18;9.02;;;;;;;15.70;76.79;93114.41;2065012;69;20246;-77
2021/07/19 02:37:00;;;;;;;14.05;8.63;;;;;;;15.59;77.18;93112.44;2052083;70;20146;-78
2021/07/19 02:39:29;;;;;;;12.45;8.80;;;;;;;15.55;77.83;93106.56;2052089;70;20150;-78
2021/07/19 02:41:58;;;;;;;16.58;9.25;;;;;;;15.47;78.17;93106.88;2064970;69;20150;-78
2021/07/19 02:44:27;;;;;;;18.55;8.93;;;;;;;15.45;78.29;93115.31;2052018;69;20241;-78
2021/07/19 02:47:06;;;;;;;15.63;9.43;;;;;;;15.64;76.70;93109.19;2062778;69;20150;-78
2021/07/19 02:49:33;;;;;;;14.93;9.10;;;;;;;15.64;77.78;93102.78;2052519;70;20192;-78
2021/07/19 02:52:02;;;;;;;12.77;9.27;;;;;;;15.61;77.65;93106.84;2065300;69;20142;-78
2021/07/19 02:54:28;;;;;;;12.27;8.27;;;;;;;15.65;76.87;93107.81;2065411;69;20227;-79
2021/07/19 02:56:55;;;;;;;16.00;9.10;;;;;;;15.70;76.75;93109.47;2052674;70;20589;-78
2021/07/19 02:59:22;;;;;;;15.27;8.55;;;;;;;15.72;77.26;93112.41;2052932;69;20147;-78
2021/07/19 03:01:53;;;;;;;15.98;8.90;;;;;;;15.74;77.15;93109.66;2065350;69;20146;-77
2021/07/19 03:04:21;;;;;;;11.25;8.57;;;;;;;15.74;78.10;93112.50;2062638;69;20186;-78
2021/07/19 03:06:49;;;;;;;15.30;8.30;;;;;;;15.79;76.65;93110.59;2052572;69;20752;-78
2021/07/19 03:09:19;;;;;;;15.35;9.02;;;;;;;15.77;77.36;93121.88;2065446;69;20138;-78
2021/07/19 03:11:50;;;;;;;13.50;8.95;;;;;;;15.61;78.11;93109.69;2052477;69;20288;-78
2021/07/19 03:14:21;;;;;;;15.10;9.43;;;;;;;15.70;76.85;93109.47;2065431;69;20138;-78
2021/07/19 03:16:50;;;;;;;12.38;8.95;;;;;;;15.77;77.02;93115.44;2052468;70;20150;-78
2021/07/19 03:19:18;;;;;;;11.40;8.32;;;;;;;15.81;76.31;93107.13;2052523;70;20142;-79
2021/07/19 03:21:46;;;;;;;15.73;9.40;;;;;;;15.80;77.60;93112.06;2052437;69;20201;-78
2021/07/19 03:24:22;;;;;;;12.43;8.88;;;;;;;15.78;77.75;93105.56;2065432;69;20329;-78
2021/07/19 03:26:49;;;;;;;13.10;8.38;;;;;;;15.85;76.74;93108.06;2065410;69;20220;-78
2021/07/19 03:29:17;;;;;;;15.02;9.45;;;;;;;15.84;77.24;93106.56;2052461;69;20143;-78
2021/07/19 03:32:10;;;;;;;12.45;8.75;;;;;;;15.91;74.90;93101.94;2065261;69;20150;-78
2021/07/19 03:34:40;;;;;;;16.58;9.73;;;;;;;15.89;75.72;93102.56;2065358;69;20178;-78
2021/07/19 03:37:09;;;;;;;14.75;8.65;;;;;;;15.92;76.52;93109.81;2065381;69;20238;-77
2021/07/19 03:39:40;;;;;;;12.50;9.23;;;;;;;15.86;77.12;93100.28;2065396;69;20151;-78
2021/07/19 03:42:11;;;;;;;14.77;9.18;;;;;;;15.92;76.67;93106.25;2052390;70;20249;-77
2021/07/19 03:44:42;;;;;;;13.52;8.90;;;;;;;15.84;76.94;93100.91;2065436;69;20158;-78
2021/07/19 03:47:13;;;;;;;11.85;8.68;;;;;;;15.84;76.92;93103.75;2065255;69;20181;-77
2021/07/19 03:49:40;;;;;;;14.02;9.60;;;;;;;15.74;78.49;93101.16;2065343;69;20515;-78
2021/07/19 03:52:07;;;;;;;13.73;9.43;;;;;;;15.54;78.20;93108.66;2052419;69;20173;-78
2021/07/19 03:54:34;;;;;;;13.10;8.32;;;;;;;15.69;76.30;93119.34;2065257;69;20138;-78
2021/07/19 03:57:04;;;;;;;14.13;8.75;;;;;;;15.75;77.32;93113.22;2052389;69;20138;-78
2021/07/19 03:59:32;;;;;;;13.93;8.65;;;;;;;15.75;77.49;93124.59;2065327;69;20574;-78
2021/07/19 04:02:00;;;;;;;14.00;9.50;;;;;;;15.66;77.77;93119.88;2065287;69;20146;-78
2021/07/19 04:04:38;;;;;;;13.18;8.45;;;;;;;15.72;77.66;93120.19;2065357;69;20146;-78
2021/07/19 04:07:06;;;;;;;13.90;9.43;;;;;;;15.61;77.80;93124.59;2052391;70;20149;-78
2021/07/19 04:09:38;;;;;;;13.23;8.20;;;;;;;15.63;77.20;93126.81;2065350;69;20229;-77
2021/07/19 04:12:08;;;;;;;16.10;9.32;;;;;;;15.70;77.20;93125.75;2052371;69;20668;-78
2021/07/19 04:14:35;;;;;;;17.15;9.85;;;;;;;15.74;76.79;93123.13;2065334;69;20497;-78
2021/07/19 04:17:04;;;;;;;19.50;9.70;;;;;;;15.75;77.50;93127.44;2065266;69;20146;-79
2021/07/19 04:19:31;;;;;;;14.63;9.45;;;;;;;15.58;78.39;93128.72;2065358;69;20135;-78
2021/07/19 04:21:59;;;;;;;15.13;9.05;;;;;;;15.49;78.96;93124.75;2065232;69;20165;-78
2021/07/19 04:24:37;;;;;;;13.85;9.30;;;;;;;15.44;79.21;93128.00;2052312;70;20154;-78
2021/07/19 04:27:04;;;;;;;14.18;8.70;;;;;;;15.57;78.38;93129.34;2052450;70;20142;-78
2021/07/19 04:29:30;;;;;;;11.68;8.82;;;;;;;15.61;78.13;93130.28;2065356;69;20585;-78
2021/07/19 04:32:01;;;;;;;13.60;8.63;;;;;;;15.70;76.84;93126.50;2065112;69;20608;-78
2021/07/19 04:34:32;;;;;;;14.35;8.05;;;;;;;15.71;75.52;93133.66;2065179;69;20684;-78
2021/07/19 04:37:07;;;;;;;13.73;8.90;;;;;;;15.51;77.77;93136.19;2065294;69;20146;-78
2021/07/19 04:39:38;;;;;;;14.02;8.73;;;;;;;15.31;78.46;93137.31;2052411;70;20150;-78
2021/07/19 04:42:06;;;;;;;15.05;8.60;;;;;;;15.48;77.88;93145.97;2065190;69;20181;-78
2021/07/19 04:44:33;;;;;;;14.18;8.73;;;;;;;15.57;77.89;93141.44;2065207;69;20296;-78
2021/07/19 04:46:59;;;;;;;11.85;9.05;;;;;;;15.63;76.67;93146.69;2052340;69;20147;-78
2021/07/19 04:49:26;;;;;;;12.45;9.00;;;;;;;15.67;77.23;93136.28;2052282;69;20229;-78
2021/07/19 04:51:53;;;;;;;13.80;8.63;;;;;;;15.73;76.83;93138.69;2052268;69;20142;-79
2021/07/19 04:54:24;;;;;;;17.77;9.50;;;;;;;15.73;77.62;93130.91;2052301;70;20138;-78
2021/07/19 04:56:53;;;;;;;14.93;9.60;;;;;;;15.80;77.66;93131.94;2052416;70;20245;-79
2021/07/19 04:59:21;;;;;;;14.20;9.48;;;;;;;15.80;76.78;93129.09;2052306;70;20146;-78
2021/07/19 05:01:53;;;;;;;15.38;9.15;;;;;;;15.88;78.03;93132.31;2065061;69;20591;-78
2021/07/19 05:04:24;;;;;;;13.43;8.93;;;;;;;15.90;78.55;93129.59;2052297;70;20244;-78
2021/07/19 05:06:52;;;;;;;15.60;9.38;;;;;;;15.95;78.30;93131.25;2052299;70;20556;-79
2021/07/19 05:09:18;;;;;;;14.77;9.38;;;;;;;16.01;76.79;93131.53;2052142;70;20166;-79
2021/07/19 05:11:45;;;;;;;13.75;9.40;;;;;;;16.08;76.98;93129.72;2052287;69;20150;-79
2021/07/19 05:14:11;;;;;;;16.40;10.88;;;;;;;15.90;77.15;93135.28;2052265;70;20150;-78
2021/07/19 05:16:38;;;;;;;14.38;9.90;;;;;;;15.80;78.84;93143.28;2052131;70;20173;-78
2021/07/19 05:19:04;;;;;;;19.27;11.38;;;;;;;15.93;78.91;93142.50;2052295;69;20620;-79
2021/07/19 05:21:37;;;;;;;16.13;10.63;;;;;;;16.04;78.36;93138.06;2065142;69;20158;-79
2021/07/19 05:24:04;;;;;;;12.65;8.93;;;;;;;16.20;77.00;93140.91;2065225;69;20146;-78
2021/07/19 05:26:31;;;;;;;14.90;9.82;;;;;;;16.29;77.76;93130.66;2065140;69;20600;-78
2021/07/19 05:28:57;;;;;;;14.43;9.52;;;;;;;16.31;74.64;93131.50;2052232;70;20245;-78
2021/07/19 05:31:24;;;;;;;15.20;10.20;;;;;;;16.15;77.99;93140.00;2064941;69;20150;-78
2021/07/19 05:33:50;;;;;;;15.90;9.73;;;;;;;15.95;77.92;93134.09;2052216;70;20265;-79
2021/07/19 05:36:16;;;;;;;13.05;9.73;;;;;;;15.95;77.14;93125.56;2052211;70;20229;-78
2021/07/19 05:38:41;;;;;;;14.82;10.05;;;;;;;15.86;79.93;93125.81;2065182;69;20162;-78
2021/07/19 05:41:09;;;;;;;18.70;10.93;;;;;;;15.84;80.85;93131.41;2052176;69;20168;-78
2021/07/19 05:43:38;;;;;;;16.38;9.75;;;;;;;16.13;79.37;93133.50;2052207;70;20596;-79
2021/07/19 05:46:04;;;;;;;11.95;9.20;;;;;;;16.29;76.40;93128.56;2052310;70;20263;-78
2021/07/19 05:48:29;;;;;;;13.63;10.32;;;;;;;16.40;77.64;93135.44;2052100;70;20153;-78
2021/07/19 05:50:57;;;;;;;16.85;10.00;;;;;;;16.39;74.12;93129.03;2052305;69;20143;-78
2021/07/19 05:53:22;;;;;;;14.23;9.88;;;;;;;16.44;76.41;93132.78;2052147;69;20233;-78
2021/07/19 05:55:49;;;;;;;16.20;9.82;;;;;;;16.43;77.87;93132.06;2052274;70;20221;-78
2021/07/19 05:58:16;;;;;;;17.05;10.57;;;;;;;16.25;79.03;93129.09;2052272;69;20146;-78
2021/07/19 06:00:42;;;;;;;14.55;9.95;;;;;;;16.21;79.20;93128.19;2052124;70;20150;-78
2021/07/19 06:03:08;;;;;;;14.23;9.57;;;;;;;16.39;76.00;93131.88;2052021;69;20170;-79
2021/07/19 06:05:36;;;;;;;13.82;9.93;;;;;;;16.42;77.59;93119.22;2052150;70;20138;-78
2021/07/19 06:08:03;;;;;;;15.77;10.02;;;;;;;16.54;74.81;93116.22;2052165;70;20145;-79
2021/07/19 06:10:28;;;;;;;14.57;9.43;;;;;;;16.55;75.77;93122.63;2052105;69;20593;-79
2021/07/19 06:12:54;;;;;;;22.40;12.20;;;;;;;16.13;78.66;93127.81;2052136;70;20221;-79
2021/07/19 06:15:20;;;;;;;15.90;10.90;;;;;;;16.43;77.04;93120.69;2052128;70;20682;-78
2021/07/19 06:17:46;;;;;;;18.05;11.55;;;;;;;16.32;78.67;93113.09;2052016;70;20151;-79
2021/07/19 06:20:14;;;;;;;13.02;9.77;;;;;;;16.51;73.94;93121.06;2051945;69;20604;-79
2021/07/19 06:22:42;;;;;;;16.88;10.93;;;;;;;16.67;76.11;93111.78;2052149;70;20199;-80
2021/07/19 06:25:10;;;;;;;16.92;11.13;;;;;;;16.73;76.65;93112.84;2052048;70;20528;-80
2021/07/19 06:27:36;;;;;;;19.38;11.45;;;;;;;16.73;77.78;93118.53;2052085;69;20206;-80
2021/07/19 06:30:05;;;;;;;18.55;10.43;;;;;;;16.85;75.78;93114.75;2052071;69;20142;-80
2021/07/19 06:32:31;;;;;;;15.48;9.98;;;;;;;16.93;74.45;93118.69;2051951;70;20145;-80
2021/07/19 06:34:56;;;;;;;16.95;9.98;;;;;;;17.04;73.31;93125.53;2052015;70;20203;-79
2021/07/19 06:37:22;;;;;;;12.63;9.43;;;;;;;17.13;71.97;93121.66;2052163;69;20490;-79
2021/07/19 06:39:47;;;;;;;12.63;9.52;;;;;;;17.26;72.85;93117.97;2052029;70;20156;-79
2021/07/19 06:42:13;;;;;;;15.98;9.15;;;;;;;17.39;72.58;93105.00;2052131;69;20154;-79
2021/07/19 06:44:39;;;;;;;15.00;8.98;;;;;;;17.58;75.22;93108.59;2052075;70;20161;-78
2021/07/19 06:47:04;;;;;;;18.83;9.45;;;;;;;17.61;73.47;93115.84;2051910;70;20571;-80
2021/07/19 06:49:30;;;;;;;14.77;9.02;;;;;;;17.67;74.47;93107.56;2052046;69;20142;-81
2021/07/19 06:51:56;;;;;;;14.20;8.80;;;;;;;17.63;71.89;93102.41;2052154;70;20157;-80
2021/07/19 06:54:21;;;;;;;13.27;9.25;;;;;;;17.74;74.67;93112.16;2052007;70;20217;-81
2021/07/19 06:56:48;;;;;;;12.52;8.07;;;;;;;17.84;73.80;93098.31;2052002;70;20272;-81
2021/07/19 06:59:14;;;;;;;13.70;8.85;;;;;;;17.88;71.02;93100.59;2052048;69;20645;-81
2021/07/19 07:01:40;;;;;;;12.63;8.98;;;;;;;17.81;72.06;93098.88;2051857;69;20142;-79
2021/07/19 07:04:07;;;;;;;12.82;9.18;;;;;;;17.89;71.43;93087.81;2052074;70;20274;-79
2021/07/19 07:06:32;;;;;;;15.60;9.48;;;;;;;18.04;74.02;93090.56;2052001;69;20163;-79
2021/07/19 07:08:59;;;;;;;15.30;9.73;;;;;;;18.01;75.17;93096.88;2051940;69;20266;-80
2021/07/19 07:11:28;;;;;;;14.05;9.02;;;;;;;18.12;73.95;93084.47;2051934;70;20142;-80
2021/07/19 07:13:55;;;;;;;15.95;10.68;;;;;;;18.13;74.49;93079.50;2051961;70;20142;-80
2021/07/19 07:16:21;;;;;;;15.57;9.77;;;;;;;18.03;72.12;93074.13;2051844;69;20138;-80
2021/07/19 07:18:47;;;;;;;14.00;9.10;;;;;;;18.16;73.84;93075.34;2051961;69;20609;-80
2021/07/19 07:21:14;;;;;;;13.45;8.70;;;;;;;18.34;72.81;93072.47;2051883;70;20157;-80
2021/07/19 07:23:40;;;;;;;13.93;9.57;;;;;;;18.38;74.00;93078.31;2064770;69;20138;-80
2021/07/19 07:26:06;;;;;;;13.80;9.52;;;;;;;18.47;73.09;93072.28;2052112;69;20138;-80
2021/07/19 07:28:31;;;;;;;14.45;8.77;;;;;;;18.61;73.42;93072.06;2064951;69;20154;-80
2021/07/19 07:30:57;;;;;;;11.95;9.35;;;;;;;18.71;71.24;93063.19;2051891;69;20159;-80
2021/07/19 07:33:23;;;;;;;13.40;9.30;;;;;;;18.75;72.30;93066.91;2052115;70;20143;-80
2021/07/19 07:35:50;;;;;;;16.08;10.27;;;;;;;18.90;73.54;93064.56;2065347;69;20229;-80
2021/07/19 07:38:16;;;;;;;16.27;9.13;;;;;;;18.99;73.02;93061.34;2052376;70;20235;-80
2021/07/19 07:40:41;;;;;;;14.15;9.65;;;;;;;19.04;73.31;93048.69;2052297;70;20171;-80
2021/07/19 07:43:07;;;;;;;14.30;9.38;;;;;;;19.14;72.74;93051.16;2052447;69;20177;-80
2021/07/19 07:45:33;;;;;;;12.63;9.55;;;;;;;19.34;72.46;93045.41;2052323;69;20149;-80
2021/07/19 07:47:58;;;;;;;13.73;9.43;;;;;;;19.43;72.71;93046.44;2052196;70;20127;-80
2021/07/19 07:50:24;;;;;;;12.38;8.90;;;;;;;19.54;72.33;93042.50;2052445;70;20619;-80
2021/07/19 07:52:49;;;;;;;12.77;9.38;;;;;;;19.59;73.06;93038.38;2052308;69;20157;-80
2021/07/19 07:55:15;;;;;;;12.82;8.35;;;;;;;19.79;73.04;93041.19;2052370;70;20192;-80
2021/07/19 07:57:41;;;;;;;13.60;8.70;;;;;;;19.90;72.33;93040.13;2052384;70;20234;-80
2021/07/19 08:00:15;;;;;;;16.00;8.90;;;;;;;19.81;69.94;93035.53;2052327;70;20162;-80
2021/07/19 08:02:41;;;;;;;12.95;9.15;;;;;;;20.15;71.21;93033.03;2052205;69;20150;-80
2021/07/19 08:05:08;;;;;;;16.98;8.95;;;;;;;20.48;70.93;93031.16;2052361;70;20147;-80
2021/07/19 08:07:34;;;;;;;16.33;8.88;;;;;;;20.55;64.04;93033.53;2052387;70;20269;-79
2021/07/19 08:10:00;;;;;;;14.45;8.82;;;;;;;20.96;69.10;93031.81;2052446;70;20608;-80
2021/07/19 08:12:26;;;;;;;12.13;8.55;;;;;;;21.29;64.96;93035.56;2052395;69;20146;-85
2021/07/19 08:14:52;;;;;;;14.60;8.60;;;;;;;21.49;63.94;93036.13;2052355;69;20146;-81
2021/07/19 08:17:18;;;;;;;15.88;8.73;;;;;;;21.74;59.43;93034.59;2052275;69;20304;-79
2021/07/19 08:19:45;;;;;;;12.10;8.25;;;;;;;22.22;58.34;93028.59;2052348;70;20632;-78
2021/07/19 08:22:13;;;;;;;10.07;8.27;;;;;;;22.26;59.99;93028.66;2052441;70;20520;-78
2021/07/19 08:24:41;;;;;;;15.73;7.95;;;;;;;22.43;61.51;93029.03;2052374;69;20183;-80
2021/07/19 08:27:08;;;;;;;10.10;7.68;;;;;;;22.78;58.49;93025.47;2052353;69;20147;-79
2021/07/19 08:29:34;;;;;;;13.13;8.68;;;;;;;23.18;57.31;93021.22;2052321;70;20601;-79
2021/07/19 08:32:00;;;;;;;11.85;7.55;;;;;;;23.06;53.95;93022.47;2052246;70;20142;-78
2021/07/19 08:34:26;;;;;;;12.15;7.60;;;;;;;23.43;52.78;93010.94;2052297;70;20138;-79
2021/07/19 08:36:52;;;;;;;11.52;8.30;;;;;;;23.27;52.02;93017.81;2052541;70;20578;-77
2021/07/19 08:39:17;;;;;;;14.52;8.52;;;;;;;23.73;54.62;93019.38;2052453;70;20243;-78
2021/07/19 08:41:43;;;;;;;12.65;8.68;;;;;;;23.54;56.02;93013.28;2052298;70;20215;-81
2021/07/19 08:44:10;;;;;;;11.13;8.57;;;;;;;23.92;54.01;93009.63;2065053;69;20630;-79
2021/07/19 08:46:42;;;;;;;12.50;7.75;;;;;;;24.14;54.57;93005.63;2052215;70;20142;-79
2021/07/19 08:49:09;;;;;;;11.60;8.20;;;;;;;24.24;51.09;93005.81;2052298;70;20559;-79
2021/07/19 08:51:43;;;;;;;17.23;8.32;;;;;;;24.44;50.68;92993.88;2052343;70;20174;-79
2021/07/19 08:54:11;;;;;;;12.50;8.25;;;;;;;24.99;50.90;92994.56;2052197;69;20149;-81
2021/07/19 08:56:40;;;;;;;12.02;7.57;;;;;;;24.99;51.34;92995.31;2052293;70;20221;-81
2021/07/19 08:59:08;;;;;;;11.95;8.10;;;;;;;24.93;49.01;92998.13;2052588;70;20234;-79
2021/07/19 09:01:37;;;;;;;18.70;9.57;;;;;;;24.84;45.17;92997.28;2052104;69;20234;-79
2021/07/19 09:04:03;;;;;;;14.68;8.68;;;;;;;25.27;48.85;93002.84;2052253;70;20609;-80
2021/07/19 09:06:28;;;;;;;10.57;8.55;;;;;;;25.63;49.74;92990.94;2052355;70;20161;-80
2021/07/19 09:08:54;;;;;;;13.00;8.93;;;;;;;25.65;44.69;92987.34;2065162;69;20192;-81
2021/07/19 09:11:22;;;;;;;14.38;8.27;;;;;;;25.62;47.24;92989.50;2052243;70;20147;-80
2021/07/19 09:14:03;;;;;;;13.13;9.00;;;;;;;25.36;44.79;92987.06;2052217;69;20522;-81
2021/07/19 09:16:39;;;;;;;14.13;8.23;;;;;;;25.51;48.58;92987.94;2052119;70;20615;-81
2021/07/19 09:19:07;;;;;;;12.48;8.00;;;;;;;25.88;45.04;92989.00;2052221;70;20146;-82
2021/07/19 09:21:36;;;;;;;13.45;8.93;;;;;;;26.49;48.16;92985.88;2052306;70;20161;-82
2021/07/19 09:24:11;;;;;;;14.35;8.70;;;;;;;26.30;42.76;92979.25;2052221;70;20142;-80
2021/07/19 09:26:39;;;;;;;14.57;8.35;;;;;;;26.24;46.76;92974.13;2052247;70;20154;-78
2021/07/19 09:29:06;;;;;;;14.70;8.30;;;;;;;26.46;44.85;92975.75;2052331;70;20149;-77
2021/07/19 09:31:36;;;;;;;11.93;8.32;;;;;;;26.99;44.13;92965.16;2052182;70;20524;-79
2021/07/19 09:34:05;;;;;;;12.10;8.38;;;;;;;26.81;42.32;92965.09;2052225;70;20234;-81
2021/07/19 09:36:31;;;;;;;15.20;8.60;;;;;;;27.02;45.06;92966.59;2052218;70;20158;-81
2021/07/19 09:39:08;;;;;;;12.05;8.07;;;;;;;27.91;41.37;92965.38;2052370;69;20182;-80
2021/07/19 09:41:35;;;;;;;10.73;8.63;;;;;;;27.94;42.14;92952.34;2052318;70;20134;-81
2021/07/19 09:44:06;;;;;;;13.05;8.90;;;;;;;27.33;41.84;92947.22;2052214;70;20173;-81
2021/07/19 09:46:33;;;;;;;12.38;8.30;;;;;;;28.01;40.80;92945.13;2065084;69;20142;-80
2021/07/19 09:49:00;;;;;;;15.43;8.35;;;;;;;27.21;40.94;92940.69;2052350;70;20158;-79
2021/07/19 09:51:34;;;;;;;11.48;7.60;;;;;;;27.06;43.11;92931.22;2065128;69;20685;-80
2021/07/19 09:54:11;;;;;;;12.27;8.20;;;;;;;27.57;41.75;92940.00;2052291;70;20246;-78
2021/07/19 09:56:38;;;;;;;12.98;8.07;;;;;;;26.98;42.60;92934.81;2052157;70;20486;-82
2021/07/19 09:59:14;;;;;;;15.32;7.80;;;;;;;27.41;41.85;92932.06;2052167;70;20138;-80
2021/07/19 10:01:44;;;;;;;13.85;7.68;;;;;;;28.14;41.67;92927.75;2052182;70;20138;-80
2021/07/19 10:04:17;;;;;;;11.32;8.50;;;;;;;28.40;42.85;92924.09;2052417;70;20234;-79
2021/07/19 10:06:45;;;;;;;12.85;7.88;;;;;;;28.24;42.15;92910.38;2063883;69;20138;-78
2021/07/19 10:09:13;;;;;;;13.65;8.13;;;;;;;28.60;41.92;92909.56;2051227;70;20161;-81
2021/07/19 10:11:43;;;;;;;13.45;8.13;;;;;;;28.57;39.42;92908.13;2064444;69;20174;-79
2021/07/19 10:14:09;;;;;;;12.55;7.75;;;;;;;28.31;40.03;92909.59;2050637;70;20164;-80
2021/07/19 10:16:36;;;;;;;11.13;7.93;;;;;;;29.05;39.34;92897.81;2063430;69;20154;-77
2021/07/19 10:19:04;;;;;;;9.27;7.55;;;;;;;29.60;40.42;92895.28;2051077;70;20138;-80
2021/07/19 10:21:32;;;;;;;12.70;8.00;;;;;;;29.77;41.56;92892.25;2052072;70;20146;-78
2021/07/19 10:24:04;;;;;;;12.88;8.00;;;;;;;29.84;38.05;92905.25;2052042;70;20612;-80
2021/07/19 10:26:30;;;;;;;;;;;;;;;29.83;37.05;92892.94;2065169;69;20604;-80
2021/07/19 10:28:57;;;;;;;15.45;8.30;;;;;;;29.86;37.04;92893.63;2052113;70;20054;-83
2021/07/19 10:31:23;;;;;;;10.60;7.90;;;;;;;30.41;36.96;92901.13;2064904;69;20141;-77
2021/07/19 10:33:51;;;;;;;13.40;8.10;;;;;;;29.87;39.27;92900.88;2064829;69;20162;-79
2021/07/19 10:36:23;;;;;;;11.40;8.40;;;;;;;30.02;36.47;92896.41;2052266;69;20135;-83
2021/07/19 10:38:50;;;;;;;10.03;8.20;;;;;;;30.21;35.91;92896.25;2052589;70;20625;-87
2021/07/19 10:41:22;;;;;;;12.40;7.72;;;;;;;30.87;35.41;92896.97;2052144;69;20185;-86
2021/07/19 10:43:58;;;;;;;12.45;7.65;;;;;;;31.19;37.04;92890.00;2052192;70;20145;-92
2021/07/19 10:46:26;;;;;;;10.60;7.60;;;;;;;31.11;34.82;92893.03;2052254;70;20134;-88
2021/07/19 10:49:09;;;;;;;11.40;7.70;;;;;;;31.89;33.12;92892.66;2052111;69;20668;-85
2021/07/19 10:51:47;;;;;;;;;;;;;;;31.92;33.48;92885.31;2052177;70;20146;-85
2021/07/19 10:54:18;;;;;;;12.20;7.10;;;;;;;32.11;33.78;92883.53;2052043;70;20091;-85
2021/07/19 10:56:46;;;;;;;8.90;6.50;;;;;;;32.98;31.83;92871.00;2052274;70;20215;-91
2021/07/19 10:59:23;;;;;;;9.02;6.57;;;;;;;33.42;30.75;92875.16;2052581;70;20561;-84
2021/07/19 11:01:58;;;;;;;9.13;6.47;;;;;;;32.13;30.84;92874.78;2051881;69;20190;-83
2021/07/19 11:04:24;;;;;;;7.38;5.63;;;;;;;33.79;29.78;92865.56;2051975;69;20657;-78
2021/07/19 11:06:57;;;;;;;10.38;6.30;;;;;;;34.22;29.47;92871.06;2051415;70;20147;-79
2021/07/19 11:09:39;;;;;;;8.98;5.45;;;;;;;34.42;27.66;92863.97;2052005;70;20650;-87
2021/07/19 11:12:11;;;;;;;9.13;5.32;;;;;;;34.51;26.21;92867.44;2052658;69;20592;-82
2021/07/19 11:14:50;;;;;;;7.43;5.43;;;;;;;35.56;27.15;92860.75;2052797;70;20232;-83
2021/07/19 11:17:20;;;;;;;10.52;5.75;;;;;;;36.29;23.06;92860.59;2052564;70;20585;-83
2021/07/19 11:19:48;;;;;;;10.90;5.18;;;;;;;39.09;21.86;92862.16;2052483;69;20185;-82
2021/07/19 11:22:27;;;;;;;7.93;5.43;;;;;;;40.81;20.01;92859.84;2052433;69;20524;-81
2021/07/19 11:24:57;;;;;;;11.50;5.40;;;;;;;41.64;19.16;92854.69;2065421;69;20612;-82
2021/07/19 11:27:49;;;;;;;10.75;5.47;;;;;;;41.73;19.28;92857.91;2052433;70;20155;-85
2021/07/19 11:30:23;;;;;;;8.55;5.30;;;;;;;41.36;17.34;92851.03;2051772;70;20169;-80
2021/07/19 11:32:49;;;;;;;9.88;5.07;;;;;;;42.47;18.29;92836.72;2052381;70;20231;-82